Pagrindinis puslapis
METAR-TAF:

METAR-TAF

Oro uostai :

Lake Argyle, Australija

platuma: 16-38-13S, ilguma: 128-27-05E, Aukštis: 159 m

Dabartinis oras

Ataskaita buvo paskelbta 56 minutes, ne 20:00 UTC
Vėjas 3 kt iš Pietų/Pietvakarių
Temperatūra 24°C
Drėgmė 44%
Slėgis 1013 hPa
Matomumas 10 km arba daugiau

METAR: YARG 202000Z AUTO 21003KT 9999 // NCD 24/11 Q1013

Laikas: 04:56 (20:56 UTC)


TAF: trūkstamas

Orai ataskaitas ir orų prognozės (METAR, TAF).

turimą stotys yra geltonos ir raudonos taškus žemėlapyje.

Perkelti pele per norėdami pamatyti stoties vardą.

Tada spustelėkite, norėdami matyti oro stebėjimo ir prognozės.

Norėdami pakeisti žemėlapį: spustelėkite ant žalios mygtukų su juodo kryžiaus žemyn,; žalią mygtuką su brūkšneliu, jei norite nutolinti; arba žalių rodyklių gretimoms žemėlapius.


METAR-TAF: